sensor_id;sensor_type;location;lat;lon;timestamp;temperature;humidity
9118;DHT22;4594;50.994;7.126;2023-12-20T00:01:22;10.80;68.40
9118;DHT22;4594;50.994;7.126;2023-12-20T00:03:48;10.70;68.30
9118;DHT22;4594;50.994;7.126;2023-12-20T00:06:14;10.70;68.30
9118;DHT22;4594;50.994;7.126;2023-12-20T00:08:39;10.70;68.70
9118;DHT22;4594;50.994;7.126;2023-12-20T00:11:05;10.70;68.20
9118;DHT22;4594;50.994;7.126;2023-12-20T00:13:31;10.70;68.20
9118;DHT22;4594;50.994;7.126;2023-12-20T00:15:56;10.70;68.10
9118;DHT22;4594;50.994;7.126;2023-12-20T00:18:23;10.80;68.30
9118;DHT22;4594;50.994;7.126;2023-12-20T00:20:48;10.70;68.10
9118;DHT22;4594;50.994;7.126;2023-12-20T00:23:14;10.90;68.40
9118;DHT22;4594;50.994;7.126;2023-12-20T00:25:40;10.70;68.10
9118;DHT22;4594;50.994;7.126;2023-12-20T00:28:06;10.70;68.10
9118;DHT22;4594;50.994;7.126;2023-12-20T00:30:32;10.50;67.80
9118;DHT22;4594;50.994;7.126;2023-12-20T00:32:58;10.70;68.10
9118;DHT22;4594;50.994;7.126;2023-12-20T00:35:23;10.80;68.20
9118;DHT22;4594;50.994;7.126;2023-12-20T00:37:49;10.70;68.10
9118;DHT22;4594;50.994;7.126;2023-12-20T00:40:15;10.70;68.10
9118;DHT22;4594;50.994;7.126;2023-12-20T00:42:41;10.70;68.10
9118;DHT22;4594;50.994;7.126;2023-12-20T00:45:07;11.10;68.50
9118;DHT22;4594;50.994;7.126;2023-12-20T00:47:33;10.60;67.70
9118;DHT22;4594;50.994;7.126;2023-12-20T00:49:59;10.60;67.50
9118;DHT22;4594;50.994;7.126;2023-12-20T00:52:25;10.60;67.10
9118;DHT22;4594;50.994;7.126;2023-12-20T00:54:51;10.70;66.80
9118;DHT22;4594;50.994;7.126;2023-12-20T00:57:17;10.60;66.30
9118;DHT22;4594;50.994;7.126;2023-12-20T00:59:42;10.50;65.90
9118;DHT22;4594;50.994;7.126;2023-12-20T01:02:08;10.50;65.80
9118;DHT22;4594;50.994;7.126;2023-12-20T01:04:35;10.50;65.70
9118;DHT22;4594;50.994;7.126;2023-12-20T01:07:01;10.50;65.70
9118;DHT22;4594;50.994;7.126;2023-12-20T01:09:27;10.40;65.80
9118;DHT22;4594;50.994;7.126;2023-12-20T01:11:53;10.40;65.90
9118;DHT22;4594;50.994;7.126;2023-12-20T01:14:19;10.80;66.30
9118;DHT22;4594;50.994;7.126;2023-12-20T01:16:45;10.40;65.80
9118;DHT22;4594;50.994;7.126;2023-12-20T01:19:11;10.30;65.60
9118;DHT22;4594;50.994;7.126;2023-12-20T01:21:38;10.30;65.50
9118;DHT22;4594;50.994;7.126;2023-12-20T01:24:04;10.30;65.20
9118;DHT22;4594;50.994;7.126;2023-12-20T01:26:30;11.60;66.30
9118;DHT22;4594;50.994;7.126;2023-12-20T01:28:56;10.20;64.40
9118;DHT22;4594;50.994;7.126;2023-12-20T01:31:21;10.20;63.90
9118;DHT22;4594;50.994;7.126;2023-12-20T01:33:47;10.20;63.50
9118;DHT22;4594;50.994;7.126;2023-12-20T01:36:13;10.00;63.30
9118;DHT22;4594;50.994;7.126;2023-12-20T01:38:38;10.80;64.40
9118;DHT22;4594;50.994;7.126;2023-12-20T01:41:04;9.90;65.00
9118;DHT22;4594;50.994;7.126;2023-12-20T01:43:30;10.50;64.90
9118;DHT22;4594;50.994;7.126;2023-12-20T01:45:57;9.90;65.80
9118;DHT22;4594;50.994;7.126;2023-12-20T01:48:24;9.80;66.20
9118;DHT22;4594;50.994;7.126;2023-12-20T01:50:51;9.80;65.90
9118;DHT22;4594;50.994;7.126;2023-12-20T01:53:20;9.80;65.80
9118;DHT22;4594;50.994;7.126;2023-12-20T01:55:50;9.80;65.70
9118;DHT22;4594;50.994;7.126;2023-12-20T01:58:19;9.70;65.50
9118;DHT22;4594;50.994;7.126;2023-12-20T02:00:46;9.70;65.50
9118;DHT22;4594;50.994;7.126;2023-12-20T02:03:12;9.70;65.60
9118;DHT22;4594;50.994;7.126;2023-12-20T02:05:39;9.60;65.60
9118;DHT22;4594;50.994;7.126;2023-12-20T02:08:05;9.60;65.80
9118;DHT22;4594;50.994;7.126;2023-12-20T02:10:31;9.60;65.90
9118;DHT22;4594;50.994;7.126;2023-12-20T02:12:57;9.60;66.00
9118;DHT22;4594;50.994;7.126;2023-12-20T02:15:24;9.60;66.20
9118;DHT22;4594;50.994;7.126;2023-12-20T02:17:50;9.80;66.50
9118;DHT22;4594;50.994;7.126;2023-12-20T02:20:16;9.50;66.10
9118;DHT22;4594;50.994;7.126;2023-12-20T02:22:42;9.50;66.10
9118;DHT22;4594;50.994;7.126;2023-12-20T02:25:07;9.50;65.90
9118;DHT22;4594;50.994;7.126;2023-12-20T02:27:34;9.50;65.60
9118;DHT22;4594;50.994;7.126;2023-12-20T02:30:00;9.40;65.00
9118;DHT22;4594;50.994;7.126;2023-12-20T02:32:26;9.40;64.80
9118;DHT22;4594;50.994;7.126;2023-12-20T02:34:53;9.40;64.50
9118;DHT22;4594;50.994;7.126;2023-12-20T02:37:20;9.30;64.40
9118;DHT22;4594;50.994;7.126;2023-12-20T02:39:45;9.30;64.40
9118;DHT22;4594;50.994;7.126;2023-12-20T02:42:11;9.20;64.00
9118;DHT22;4594;50.994;7.126;2023-12-20T02:44:37;9.20;63.60
9118;DHT22;4594;50.994;7.126;2023-12-20T02:47:03;9.20;63.30
9118;DHT22;4594;50.994;7.126;2023-12-20T02:49:29;9.10;63.00
9118;DHT22;4594;50.994;7.126;2023-12-20T02:51:54;9.00;62.60
9118;DHT22;4594;50.994;7.126;2023-12-20T02:54:20;9.00;62.70
9118;DHT22;4594;50.994;7.126;2023-12-20T02:56:46;8.90;62.70
9118;DHT22;4594;50.994;7.126;2023-12-20T02:59:13;8.90;63.10
9118;DHT22;4594;50.994;7.126;2023-12-20T03:01:45;8.90;63.60
9118;DHT22;4594;50.994;7.126;2023-12-20T03:04:12;8.80;63.50
9118;DHT22;4594;50.994;7.126;2023-12-20T03:06:38;8.80;64.50
9118;DHT22;4594;50.994;7.126;2023-12-20T03:09:04;8.80;64.80
9118;DHT22;4594;50.994;7.126;2023-12-20T03:11:30;8.90;65.20
9118;DHT22;4594;50.994;7.126;2023-12-20T03:13:56;8.80;65.30
9118;DHT22;4594;50.994;7.126;2023-12-20T03:16:22;8.80;65.40
9118;DHT22;4594;50.994;7.126;2023-12-20T03:18:49;8.80;65.50
9118;DHT22;4594;50.994;7.126;2023-12-20T03:21:15;8.80;65.70
9118;DHT22;4594;50.994;7.126;2023-12-20T03:23:41;8.80;65.80
9118;DHT22;4594;50.994;7.126;2023-12-20T03:26:07;8.80;65.90
9118;DHT22;4594;50.994;7.126;2023-12-20T03:28:34;8.80;66.10
9118;DHT22;4594;50.994;7.126;2023-12-20T03:31:01;8.80;66.10
9118;DHT22;4594;50.994;7.126;2023-12-20T03:33:28;8.80;66.10
9118;DHT22;4594;50.994;7.126;2023-12-20T03:35:54;8.80;66.20
9118;DHT22;4594;50.994;7.126;2023-12-20T03:38:20;8.80;66.20
9118;DHT22;4594;50.994;7.126;2023-12-20T03:40:49;8.80;66.20
9118;DHT22;4594;50.994;7.126;2023-12-20T03:43:15;8.80;66.30
9118;DHT22;4594;50.994;7.126;2023-12-20T03:45:42;9.00;66.60
9118;DHT22;4594;50.994;7.126;2023-12-20T03:48:08;8.90;66.60
9118;DHT22;4594;50.994;7.126;2023-12-20T03:50:35;8.90;66.60
9118;DHT22;4594;50.994;7.126;2023-12-20T03:53:01;8.90;66.70
9118;DHT22;4594;50.994;7.126;2023-12-20T03:55:27;8.90;66.80
9118;DHT22;4594;50.994;7.126;2023-12-20T03:57:53;8.90;67.20
9118;DHT22;4594;50.994;7.126;2023-12-20T04:00:19;8.90;66.80
9118;DHT22;4594;50.994;7.126;2023-12-20T04:02:44;8.90;66.70
9118;DHT22;4594;50.994;7.126;2023-12-20T04:05:10;9.10;66.90
9118;DHT22;4594;50.994;7.126;2023-12-20T04:07:36;9.00;66.80
9118;DHT22;4594;50.994;7.126;2023-12-20T04:10:03;9.00;66.60
9118;DHT22;4594;50.994;7.126;2023-12-20T04:12:29;9.00;66.50
9118;DHT22;4594;50.994;7.126;2023-12-20T04:14:56;9.00;66.50
9118;DHT22;4594;50.994;7.126;2023-12-20T04:17:22;9.10;66.60
9118;DHT22;4594;50.994;7.126;2023-12-20T04:19:49;9.00;66.30
9118;DHT22;4594;50.994;7.126;2023-12-20T04:22:16;9.10;66.40
9118;DHT22;4594;50.994;7.126;2023-12-20T04:24:43;9.00;66.30
9118;DHT22;4594;50.994;7.126;2023-12-20T04:27:08;9.00;66.30
9118;DHT22;4594;50.994;7.126;2023-12-20T04:29:34;9.00;66.30
9118;DHT22;4594;50.994;7.126;2023-12-20T04:32:00;9.00;66.30
9118;DHT22;4594;50.994;7.126;2023-12-20T04:34:26;9.10;66.40
9118;DHT22;4594;50.994;7.126;2023-12-20T04:36:52;9.00;66.30
9118;DHT22;4594;50.994;7.126;2023-12-20T04:39:18;9.00;66.50
9118;DHT22;4594;50.994;7.126;2023-12-20T04:41:44;9.00;66.50
9118;DHT22;4594;50.994;7.126;2023-12-20T04:44:09;9.10;66.60
9118;DHT22;4594;50.994;7.126;2023-12-20T04:46:35;9.00;66.50
9118;DHT22;4594;50.994;7.126;2023-12-20T04:49:01;9.70;67.30
9118;DHT22;4594;50.994;7.126;2023-12-20T04:51:27;9.00;66.60
9118;DHT22;4594;50.994;7.126;2023-12-20T04:53:53;9.00;66.50
9118;DHT22;4594;50.994;7.126;2023-12-20T04:56:19;9.10;66.60
9118;DHT22;4594;50.994;7.126;2023-12-20T04:58:44;9.10;66.50
9118;DHT22;4594;50.994;7.126;2023-12-20T05:01:10;9.10;66.40
9118;DHT22;4594;50.994;7.126;2023-12-20T05:03:37;9.10;66.40
9118;DHT22;4594;50.994;7.126;2023-12-20T05:06:03;9.10;66.30
9118;DHT22;4594;50.994;7.126;2023-12-20T05:08:29;9.10;66.30
9118;DHT22;4594;50.994;7.126;2023-12-20T05:10:55;9.10;66.10
9118;DHT22;4594;50.994;7.126;2023-12-20T05:13:21;9.20;66.20
9118;DHT22;4594;50.994;7.126;2023-12-20T05:15:47;9.10;66.10
9118;DHT22;4594;50.994;7.126;2023-12-20T05:18:13;9.00;65.90
9118;DHT22;4594;50.994;7.126;2023-12-20T05:20:39;9.10;66.00
9118;DHT22;4594;50.994;7.126;2023-12-20T05:23:05;9.10;66.10
9118;DHT22;4594;50.994;7.126;2023-12-20T05:25:31;9.10;66.10
9118;DHT22;4594;50.994;7.126;2023-12-20T05:27:57;9.00;65.90
9118;DHT22;4594;50.994;7.126;2023-12-20T05:30:23;9.10;65.80
9118;DHT22;4594;50.994;7.126;2023-12-20T05:32:49;10.70;66.20
9118;DHT22;4594;50.994;7.126;2023-12-20T05:35:15;9.10;65.60
9118;DHT22;4594;50.994;7.126;2023-12-20T05:37:41;9.00;65.40
9118;DHT22;4594;50.994;7.126;2023-12-20T05:40:08;9.00;65.40
9118;DHT22;4594;50.994;7.126;2023-12-20T05:42:36;9.00;65.50
9118;DHT22;4594;50.994;7.126;2023-12-20T05:45:03;9.00;65.50
9118;DHT22;4594;50.994;7.126;2023-12-20T05:47:29;9.00;65.50
9118;DHT22;4594;50.994;7.126;2023-12-20T05:49:55;9.00;65.50
9118;DHT22;4594;50.994;7.126;2023-12-20T05:52:21;9.00;65.50
9118;DHT22;4594;50.994;7.126;2023-12-20T05:54:47;9.00;65.50
9118;DHT22;4594;50.994;7.126;2023-12-20T05:57:13;9.00;65.50
9118;DHT22;4594;50.994;7.126;2023-12-20T05:59:39;9.00;65.50
9118;DHT22;4594;50.994;7.126;2023-12-20T06:02:05;9.00;65.50
9118;DHT22;4594;50.994;7.126;2023-12-20T06:04:31;9.00;65.80
9118;DHT22;4594;50.994;7.126;2023-12-20T06:06:57;9.00;66.20
9118;DHT22;4594;50.994;7.126;2023-12-20T06:09:23;9.00;66.40
9118;DHT22;4594;50.994;7.126;2023-12-20T06:11:49;9.00;66.40
9118;DHT22;4594;50.994;7.126;2023-12-20T06:14:16;9.20;66.70
9118;DHT22;4594;50.994;7.126;2023-12-20T06:16:42;9.10;66.60
9118;DHT22;4594;50.994;7.126;2023-12-20T06:19:08;9.10;66.70
9118;DHT22;4594;50.994;7.126;2023-12-20T06:21:34;9.10;66.60
9118;DHT22;4594;50.994;7.126;2023-12-20T06:23:59;9.10;66.60
9118;DHT22;4594;50.994;7.126;2023-12-20T06:26:25;9.10;66.60
9118;DHT22;4594;50.994;7.126;2023-12-20T06:28:51;10.50;66.80
9118;DHT22;4594;50.994;7.126;2023-12-20T06:31:17;9.10;66.30
9118;DHT22;4594;50.994;7.126;2023-12-20T06:33:43;9.20;66.40
9118;DHT22;4594;50.994;7.126;2023-12-20T06:36:13;9.20;66.30
9118;DHT22;4594;50.994;7.126;2023-12-20T06:38:39;9.10;65.70
9118;DHT22;4594;50.994;7.126;2023-12-20T06:41:05;9.20;66.20
9118;DHT22;4594;50.994;7.126;2023-12-20T06:43:31;9.90;66.90
9118;DHT22;4594;50.994;7.126;2023-12-20T06:45:58;9.20;66.10
9118;DHT22;4594;50.994;7.126;2023-12-20T06:48:25;9.20;66.00
9118;DHT22;4594;50.994;7.126;2023-12-20T06:50:51;9.20;65.90
9118;DHT22;4594;50.994;7.126;2023-12-20T06:53:17;9.20;65.90
9118;DHT22;4594;50.994;7.126;2023-12-20T06:55:42;9.20;65.90
9118;DHT22;4594;50.994;7.126;2023-12-20T06:58:08;9.20;65.90
9118;DHT22;4594;50.994;7.126;2023-12-20T07:00:34;9.20;65.90
9118;DHT22;4594;50.994;7.126;2023-12-20T07:03:00;9.20;65.90
9118;DHT22;4594;50.994;7.126;2023-12-20T07:05:26;9.20;66.00
9118;DHT22;4594;50.994;7.126;2023-12-20T07:07:52;9.20;66.00
9118;DHT22;4594;50.994;7.126;2023-12-20T07:10:18;9.20;66.10
9118;DHT22;4594;50.994;7.126;2023-12-20T07:12:43;9.20;66.10
9118;DHT22;4594;50.994;7.126;2023-12-20T07:15:09;9.20;66.00
9118;DHT22;4594;50.994;7.126;2023-12-20T07:17:35;9.20;66.00
9118;DHT22;4594;50.994;7.126;2023-12-20T07:20:01;9.20;65.90
9118;DHT22;4594;50.994;7.126;2023-12-20T07:22:33;9.20;65.90
9118;DHT22;4594;50.994;7.126;2023-12-20T07:24:59;9.20;65.90
9118;DHT22;4594;50.994;7.126;2023-12-20T07:27:26;9.30;66.00
9118;DHT22;4594;50.994;7.126;2023-12-20T07:29:52;9.30;66.00
9118;DHT22;4594;50.994;7.126;2023-12-20T07:32:18;9.40;66.10
9118;DHT22;4594;50.994;7.126;2023-12-20T07:34:44;10.70;66.30
9118;DHT22;4594;50.994;7.126;2023-12-20T07:37:09;9.30;66.00
9118;DHT22;4594;50.994;7.126;2023-12-20T07:39:39;9.30;66.00
9118;DHT22;4594;50.994;7.126;2023-12-20T07:42:06;9.30;66.00
9118;DHT22;4594;50.994;7.126;2023-12-20T07:44:32;9.30;66.10
9118;DHT22;4594;50.994;7.126;2023-12-20T07:46:58;9.30;66.10
9118;DHT22;4594;50.994;7.126;2023-12-20T07:49:23;9.30;66.10
9118;DHT22;4594;50.994;7.126;2023-12-20T07:51:50;9.30;66.10
9118;DHT22;4594;50.994;7.126;2023-12-20T07:54:16;9.30;66.00
9118;DHT22;4594;50.994;7.126;2023-12-20T07:56:42;10.30;66.00
9118;DHT22;4594;50.994;7.126;2023-12-20T07:59:08;9.40;66.20
9118;DHT22;4594;50.994;7.126;2023-12-20T08:01:33;10.50;66.10
9118;DHT22;4594;50.994;7.126;2023-12-20T08:03:59;9.40;66.10
9118;DHT22;4594;50.994;7.126;2023-12-20T08:06:25;9.40;66.00
9118;DHT22;4594;50.994;7.126;2023-12-20T08:08:50;9.40;66.00
9118;DHT22;4594;50.994;7.126;2023-12-20T08:11:16;9.40;66.00
9118;DHT22;4594;50.994;7.126;2023-12-20T08:13:42;9.40;66.00
9118;DHT22;4594;50.994;7.126;2023-12-20T08:16:08;9.40;66.30
9118;DHT22;4594;50.994;7.126;2023-12-20T08:18:34;10.20;65.50
9118;DHT22;4594;50.994;7.126;2023-12-20T08:21:00;9.40;65.70
9118;DHT22;4594;50.994;7.126;2023-12-20T08:23:27;9.50;65.60
9118;DHT22;4594;50.994;7.126;2023-12-20T08:25:52;9.50;65.60
9118;DHT22;4594;50.994;7.126;2023-12-20T08:28:18;9.40;65.50
9118;DHT22;4594;50.994;7.126;2023-12-20T08:30:44;9.50;65.60
9118;DHT22;4594;50.994;7.126;2023-12-20T08:33:10;9.40;65.40
9118;DHT22;4594;50.994;7.126;2023-12-20T08:35:38;9.50;65.60
9118;DHT22;4594;50.994;7.126;2023-12-20T08:38:05;9.50;65.80
9118;DHT22;4594;50.994;7.126;2023-12-20T08:40:31;9.50;66.00
9118;DHT22;4594;50.994;7.126;2023-12-20T08:42:57;9.50;66.20
9118;DHT22;4594;50.994;7.126;2023-12-20T08:45:23;11.10;66.40
9118;DHT22;4594;50.994;7.126;2023-12-20T08:47:49;9.50;65.80
9118;DHT22;4594;50.994;7.126;2023-12-20T08:50:14;9.50;65.60
9118;DHT22;4594;50.994;7.126;2023-12-20T08:52:40;9.50;65.40
9118;DHT22;4594;50.994;7.126;2023-12-20T08:55:07;9.60;65.40
9118;DHT22;4594;50.994;7.126;2023-12-20T08:57:33;9.60;65.50
9118;DHT22;4594;50.994;7.126;2023-12-20T08:59:59;9.60;65.50
9118;DHT22;4594;50.994;7.126;2023-12-20T09:02:25;10.50;65.30
9118;DHT22;4594;50.994;7.126;2023-12-20T09:04:50;9.60;65.50
9118;DHT22;4594;50.994;7.126;2023-12-20T09:07:26;9.60;65.50
9118;DHT22;4594;50.994;7.126;2023-12-20T09:09:53;9.60;63.80
9118;DHT22;4594;50.994;7.126;2023-12-20T09:12:19;9.60;65.10
9118;DHT22;4594;50.994;7.126;2023-12-20T09:14:49;9.60;64.90
9118;DHT22;4594;50.994;7.126;2023-12-20T09:17:16;9.60;64.50
9118;DHT22;4594;50.994;7.126;2023-12-20T09:19:43;9.60;65.00
9118;DHT22;4594;50.994;7.126;2023-12-20T09:22:09;9.60;65.00
9118;DHT22;4594;50.994;7.126;2023-12-20T09:24:35;9.60;65.00
9118;DHT22;4594;50.994;7.126;2023-12-20T09:27:01;9.60;65.10
9118;DHT22;4594;50.994;7.126;2023-12-20T09:29:28;9.60;65.00
9118;DHT22;4594;50.994;7.126;2023-12-20T09:31:54;9.60;65.10
9118;DHT22;4594;50.994;7.126;2023-12-20T09:34:20;9.60;65.10
9118;DHT22;4594;50.994;7.126;2023-12-20T09:36:46;9.60;65.10
9118;DHT22;4594;50.994;7.126;2023-12-20T09:39:13;9.60;65.10
9118;DHT22;4594;50.994;7.126;2023-12-20T09:41:51;9.60;65.10
9118;DHT22;4594;50.994;7.126;2023-12-20T09:44:27;9.60;64.60
9118;DHT22;4594;50.994;7.126;2023-12-20T09:46:55;9.60;65.10
9118;DHT22;4594;50.994;7.126;2023-12-20T09:49:22;9.60;65.00
9118;DHT22;4594;50.994;7.126;2023-12-20T09:51:50;9.60;65.30
9118;DHT22;4594;50.994;7.126;2023-12-20T09:54:18;9.70;65.20
9118;DHT22;4594;50.994;7.126;2023-12-20T09:56:47;9.70;65.40
9118;DHT22;4594;50.994;7.126;2023-12-20T09:59:13;9.70;64.90
9118;DHT22;4594;50.994;7.126;2023-12-20T10:01:42;9.80;65.50
9118;DHT22;4594;50.994;7.126;2023-12-20T10:04:09;9.70;64.80
9118;DHT22;4594;50.994;7.126;2023-12-20T10:06:40;9.70;65.20
9118;DHT22;4594;50.994;7.126;2023-12-20T10:09:07;9.70;65.30
9118;DHT22;4594;50.994;7.126;2023-12-20T10:11:38;9.80;65.50
9118;DHT22;4594;50.994;7.126;2023-12-20T10:14:05;9.70;65.30
9118;DHT22;4594;50.994;7.126;2023-12-20T10:16:32;9.70;65.30
9118;DHT22;4594;50.994;7.126;2023-12-20T10:19:00;9.80;65.30
9118;DHT22;4594;50.994;7.126;2023-12-20T10:21:29;9.70;65.10
9118;DHT22;4594;50.994;7.126;2023-12-20T10:23:56;9.80;65.40
9118;DHT22;4594;50.994;7.126;2023-12-20T10:26:24;9.80;65.40
9118;DHT22;4594;50.994;7.126;2023-12-20T10:28:55;9.80;65.30
9118;DHT22;4594;50.994;7.126;2023-12-20T10:31:35;9.80;65.40
9118;DHT22;4594;50.994;7.126;2023-12-20T10:34:02;11.30;64.00
9118;DHT22;4594;50.994;7.126;2023-12-20T10:36:32;9.80;65.20
9118;DHT22;4594;50.994;7.126;2023-12-20T10:38:58;9.80;64.90
9118;DHT22;4594;50.994;7.126;2023-12-20T10:41:29;9.80;65.50
9118;DHT22;4594;50.994;7.126;2023-12-20T10:44:01;9.80;65.30
9118;DHT22;4594;50.994;7.126;2023-12-20T10:46:29;9.90;64.80
9118;DHT22;4594;50.994;7.126;2023-12-20T10:48:56;9.90;65.20
9118;DHT22;4594;50.994;7.126;2023-12-20T10:51:24;9.90;65.10
9118;DHT22;4594;50.994;7.126;2023-12-20T10:53:52;9.90;65.00
9118;DHT22;4594;50.994;7.126;2023-12-20T10:56:19;9.90;65.20
9118;DHT22;4594;50.994;7.126;2023-12-20T10:58:49;9.90;65.20
9118;DHT22;4594;50.994;7.126;2023-12-20T11:01:16;9.90;65.50
9118;DHT22;4594;50.994;7.126;2023-12-20T11:03:48;9.90;65.50
9118;DHT22;4594;50.994;7.126;2023-12-20T11:09:38;9.90;64.60
9118;DHT22;4594;50.994;7.126;2023-12-20T11:12:24;10.00;61.40
9118;DHT22;4594;50.994;7.126;2023-12-20T11:14:58;10.00;62.10
9118;DHT22;4594;50.994;7.126;2023-12-20T11:17:29;10.00;63.60
9118;DHT22;4594;50.994;7.126;2023-12-20T11:22:30;10.00;63.60
9118;DHT22;4594;50.994;7.126;2023-12-20T11:25:14;10.00;62.80
9118;DHT22;4594;50.994;7.126;2023-12-20T11:27:41;10.00;61.40
9118;DHT22;4594;50.994;7.126;2023-12-20T11:30:10;10.00;63.50
9118;DHT22;4594;50.994;7.126;2023-12-20T11:32:37;10.00;63.50
9118;DHT22;4594;50.994;7.126;2023-12-20T11:37:38;10.00;62.20
9118;DHT22;4594;50.994;7.126;2023-12-20T11:40:13;10.00;62.70
9118;DHT22;4594;50.994;7.126;2023-12-20T11:42:42;10.00;63.20
9118;DHT22;4594;50.994;7.126;2023-12-20T11:45:15;10.00;63.70
9118;DHT22;4594;50.994;7.126;2023-12-20T11:47:46;10.00;63.80
9118;DHT22;4594;50.994;7.126;2023-12-20T11:50:15;10.00;63.70
9118;DHT22;4594;50.994;7.126;2023-12-20T11:52:41;11.30;65.30
9118;DHT22;4594;50.994;7.126;2023-12-20T11:55:07;10.00;63.90
9118;DHT22;4594;50.994;7.126;2023-12-20T11:57:33;10.00;63.90
9118;DHT22;4594;50.994;7.126;2023-12-20T11:59:59;10.00;63.90
9118;DHT22;4594;50.994;7.126;2023-12-20T12:02:25;10.00;63.80
9118;DHT22;4594;50.994;7.126;2023-12-20T12:04:51;10.00;63.90
9118;DHT22;4594;50.994;7.126;2023-12-20T12:07:17;10.00;63.80
9118;DHT22;4594;50.994;7.126;2023-12-20T12:09:43;10.10;63.90
9118;DHT22;4594;50.994;7.126;2023-12-20T12:12:10;10.10;63.80
9118;DHT22;4594;50.994;7.126;2023-12-20T12:14:38;10.10;63.60
9118;DHT22;4594;50.994;7.126;2023-12-20T12:17:13;11.70;65.40
9118;DHT22;4594;50.994;7.126;2023-12-20T12:19:40;10.10;62.60
9118;DHT22;4594;50.994;7.126;2023-12-20T12:24:46;10.10;62.50
9118;DHT22;4594;50.994;7.126;2023-12-20T12:27:13;10.10;62.00
9118;DHT22;4594;50.994;7.126;2023-12-20T12:29:39;10.10;63.30
9118;DHT22;4594;50.994;7.126;2023-12-20T12:32:06;10.10;63.40
9118;DHT22;4594;50.994;7.126;2023-12-20T12:34:34;10.10;63.60
9118;DHT22;4594;50.994;7.126;2023-12-20T12:37:01;10.10;63.70
9118;DHT22;4594;50.994;7.126;2023-12-20T12:39:27;10.10;63.60
9118;DHT22;4594;50.994;7.126;2023-12-20T12:41:55;10.10;63.60
9118;DHT22;4594;50.994;7.126;2023-12-20T12:44:22;10.10;63.60
9118;DHT22;4594;50.994;7.126;2023-12-20T12:46:50;10.10;63.60
9118;DHT22;4594;50.994;7.126;2023-12-20T12:49:17;10.10;63.60
9118;DHT22;4594;50.994;7.126;2023-12-20T12:51:43;10.10;63.50
9118;DHT22;4594;50.994;7.126;2023-12-20T12:54:09;10.10;63.50
9118;DHT22;4594;50.994;7.126;2023-12-20T12:56:35;10.10;63.40
9118;DHT22;4594;50.994;7.126;2023-12-20T12:59:02;10.10;63.40
9118;DHT22;4594;50.994;7.126;2023-12-20T13:01:28;10.10;63.50
9118;DHT22;4594;50.994;7.126;2023-12-20T13:03:53;10.10;63.30
9118;DHT22;4594;50.994;7.126;2023-12-20T13:06:20;10.10;63.30
9118;DHT22;4594;50.994;7.126;2023-12-20T13:08:45;10.10;63.40
9118;DHT22;4594;50.994;7.126;2023-12-20T13:11:11;10.10;63.50
9118;DHT22;4594;50.994;7.126;2023-12-20T13:13:37;10.10;63.50
9118;DHT22;4594;50.994;7.126;2023-12-20T13:16:03;10.10;63.60
9118;DHT22;4594;50.994;7.126;2023-12-20T13:18:29;10.10;63.70
9118;DHT22;4594;50.994;7.126;2023-12-20T13:20:55;10.10;64.00
9118;DHT22;4594;50.994;7.126;2023-12-20T13:23:20;10.60;64.70
9118;DHT22;4594;50.994;7.126;2023-12-20T13:25:46;10.10;64.40
9118;DHT22;4594;50.994;7.126;2023-12-20T13:28:12;10.20;64.70
9118;DHT22;4594;50.994;7.126;2023-12-20T13:30:38;10.20;64.80
9118;DHT22;4594;50.994;7.126;2023-12-20T13:33:05;10.20;64.70
9118;DHT22;4594;50.994;7.126;2023-12-20T13:35:32;10.20;64.60
9118;DHT22;4594;50.994;7.126;2023-12-20T13:37:58;10.30;64.60
9118;DHT22;4594;50.994;7.126;2023-12-20T13:40:26;10.30;64.60
9118;DHT22;4594;50.994;7.126;2023-12-20T13:42:51;10.30;64.50
9118;DHT22;4594;50.994;7.126;2023-12-20T13:45:17;10.30;64.50
9118;DHT22;4594;50.994;7.126;2023-12-20T13:47:43;10.30;64.30
9118;DHT22;4594;50.994;7.126;2023-12-20T13:50:09;10.30;64.20
9118;DHT22;4594;50.994;7.126;2023-12-20T13:52:35;10.30;64.10
9118;DHT22;4594;50.994;7.126;2023-12-20T13:55:01;10.30;64.00
9118;DHT22;4594;50.994;7.126;2023-12-20T13:57:27;11.10;64.90
9118;DHT22;4594;50.994;7.126;2023-12-20T13:59:55;10.40;64.10
9118;DHT22;4594;50.994;7.126;2023-12-20T14:02:23;10.40;64.00
9118;DHT22;4594;50.994;7.126;2023-12-20T14:04:48;10.40;63.80
9118;DHT22;4594;50.994;7.126;2023-12-20T14:07:14;10.50;63.80
9118;DHT22;4594;50.994;7.126;2023-12-20T14:09:40;10.40;63.50
9118;DHT22;4594;50.994;7.126;2023-12-20T14:12:11;10.40;63.50
9118;DHT22;4594;50.994;7.126;2023-12-20T14:14:37;10.40;63.80
9118;DHT22;4594;50.994;7.126;2023-12-20T14:17:03;10.40;63.40
9118;DHT22;4594;50.994;7.126;2023-12-20T14:19:32;10.30;63.70
9118;DHT22;4594;50.994;7.126;2023-12-20T14:21:57;10.40;63.50
9118;DHT22;4594;50.994;7.126;2023-12-20T14:24:26;10.40;63.50
9118;DHT22;4594;50.994;7.126;2023-12-20T14:26:52;10.40;63.60
9118;DHT22;4594;50.994;7.126;2023-12-20T14:29:18;10.40;63.40
9118;DHT22;4594;50.994;7.126;2023-12-20T14:31:45;10.30;63.40
9118;DHT22;4594;50.994;7.126;2023-12-20T14:34:10;10.30;63.50
9118;DHT22;4594;50.994;7.126;2023-12-20T14:36:37;10.30;63.40
9118;DHT22;4594;50.994;7.126;2023-12-20T14:39:03;10.40;63.40
9118;DHT22;4594;50.994;7.126;2023-12-20T14:41:30;10.30;63.50
9118;DHT22;4594;50.994;7.126;2023-12-20T14:43:56;10.80;64.10
9118;DHT22;4594;50.994;7.126;2023-12-20T14:46:22;10.30;63.50
9118;DHT22;4594;50.994;7.126;2023-12-20T14:48:48;10.40;63.80
9118;DHT22;4594;50.994;7.126;2023-12-20T14:51:15;10.40;63.80
9118;DHT22;4594;50.994;7.126;2023-12-20T14:53:41;10.40;63.90
9118;DHT22;4594;50.994;7.126;2023-12-20T14:56:07;10.40;63.90
9118;DHT22;4594;50.994;7.126;2023-12-20T14:58:33;10.40;64.00
9118;DHT22;4594;50.994;7.126;2023-12-20T15:00:59;10.40;64.10
9118;DHT22;4594;50.994;7.126;2023-12-20T15:03:26;10.50;64.40
9118;DHT22;4594;50.994;7.126;2023-12-20T15:05:52;10.60;64.40
9118;DHT22;4594;50.994;7.126;2023-12-20T15:08:17;10.50;64.40
9118;DHT22;4594;50.994;7.126;2023-12-20T15:10:43;10.50;64.40
9118;DHT22;4594;50.994;7.126;2023-12-20T15:13:09;10.50;64.30
9118;DHT22;4594;50.994;7.126;2023-12-20T15:15:34;10.50;64.30
9118;DHT22;4594;50.994;7.126;2023-12-20T15:18:00;10.60;64.40
9118;DHT22;4594;50.994;7.126;2023-12-20T15:20:26;10.50;64.30
9118;DHT22;4594;50.994;7.126;2023-12-20T15:22:52;10.50;64.40
9118;DHT22;4594;50.994;7.126;2023-12-20T15:25:19;10.50;64.30
9118;DHT22;4594;50.994;7.126;2023-12-20T15:27:50;10.50;64.30
9118;DHT22;4594;50.994;7.126;2023-12-20T15:30:22;10.50;64.00
9118;DHT22;4594;50.994;7.126;2023-12-20T15:32:49;11.30;64.50
9118;DHT22;4594;50.994;7.126;2023-12-20T15:35:16;10.60;64.10
9118;DHT22;4594;50.994;7.126;2023-12-20T15:37:42;10.60;64.00
9118;DHT22;4594;50.994;7.126;2023-12-20T15:40:09;10.60;64.00
9118;DHT22;4594;50.994;7.126;2023-12-20T15:42:36;10.60;63.80
9118;DHT22;4594;50.994;7.126;2023-12-20T15:45:04;10.60;63.70
9118;DHT22;4594;50.994;7.126;2023-12-20T15:47:30;10.60;63.80
9118;DHT22;4594;50.994;7.126;2023-12-20T15:49:56;10.60;63.80
9118;DHT22;4594;50.994;7.126;2023-12-20T15:52:21;10.60;63.70
9118;DHT22;4594;50.994;7.126;2023-12-20T15:54:47;10.60;64.00
9118;DHT22;4594;50.994;7.126;2023-12-20T15:57:13;11.90;65.20
9118;DHT22;4594;50.994;7.126;2023-12-20T15:59:42;10.60;63.80
9118;DHT22;4594;50.994;7.126;2023-12-20T16:02:08;10.60;63.80
9118;DHT22;4594;50.994;7.126;2023-12-20T16:04:34;10.60;63.80
9118;DHT22;4594;50.994;7.126;2023-12-20T16:07:00;10.60;63.90
9118;DHT22;4594;50.994;7.126;2023-12-20T16:09:25;10.60;63.90
9118;DHT22;4594;50.994;7.126;2023-12-20T16:11:51;10.60;64.00
9118;DHT22;4594;50.994;7.126;2023-12-20T16:14:17;10.60;64.10
9118;DHT22;4594;50.994;7.126;2023-12-20T16:16:45;10.60;64.00